Juan Iglesias

Chefscout - Málaga
20 Feb 2028
Sonntag
Verarbeitung

Persönlichkeit

Anpassungsfähigkeit (15) Ehrgeiz (17) Kontroverse (20) Loyalität (14) Druck (11) Professionalität (16) Fairness (1) Temperament (19)

Profil

Trainerstil Demokratisch
Lizenz Nationale B
Entschlossenheit 10
Menschenführung 9
Motivation 11
Disziplin 8
Arbeitszufriedenheit
100%
Ermüdung
0%
Rolle Chefscout
Gehalt 20.9K p/W
Vertrag 14.03.2028

Leistung

Verhalten Gut
Trainingseffektivität
30%
Spielerentwicklung
30%
Verletzungsprävention
35%
Taktische Umsetzung
20%

Letzte Ereignisse

Vertragsverhandlung begonnen jetzt
Vertragsverhandlung begonnen jetzt
Vertragsverhandlung begonnen jetzt
Vertragsverhandlung begonnen jetzt
Geburtstag 7T her
Vertragsverhandlung begonnen 7T her
Vertragsverhandlung begonnen 7T her
Vertragsverhandlung begonnen 7T her

Aktuell beobachtet

107
Spieler Verein Status Fähigkeit Vertrauen Beobachtet Zuletzt beobachtet Letzte Stimme
Juan Manuel Villalba Estudiantes Aktiv 124 / 118 40% 1 25.01.2028 -
Dmitry Pestryakov Akron Aktiv 127 / 124 40% 1 25.01.2028 -
Lucas Høgsberg RC Strasbourg Aktiv 139 / 138 40% 1 25.01.2028 -
Davinchi Getafe Aktiv 125 / 128 72% 1 24.01.2028 Befürworten
Brais Martínez Burgos Aktiv 114 / 113 72% 1 06.01.2028 Befürworten
Sebastián Arancibia Universidad Catolica Verloren 113 / 120 40% 2 01.01.2028 -
Ovidiu Dragusin Club America Aktiv 119 / 123 67% 1 01.01.2028 Befürworten
Themba Zwane Bragantino Verhandlung 132 / 132 66% 1 01.01.2028 Befürworten
Lebohang Maboe Al Nasr Aktiv 113 / 113 66% 1 01.01.2028 Befürworten
Lautaro Dufur Rentistas Verloren 105 / 112 40% 1 01.01.2028 -
Yusi Alavés Aktiv 129 / 132 40% 1 16.08.2027 -
Ramiro Martino Independiente Aktiv 96 / 110 40% 2 11.08.2027 -
Kwadwo Atiemo Wa All Stars Aktiv 85 / 81 40% 2 11.08.2027 -
Tiago Gordillo San Miguel Aktiv 80 / 93 40% 4 10.08.2027 -
Rodrigo Gómez Cerro Porteno Aktiv 93 / 96 40% 1 10.08.2027 -
Dennis Konney US Bougouba Aktiv 81 / 81 40% 4 09.08.2027 -
Gadiel Paoli General Caballero Aktiv 100 / 105 40% 2 09.08.2027 -
Joaquín Soto Union La Calera Aktiv 82 / 93 40% 1 07.08.2027 -
Enzo Galli Patronato Aktiv 95 / 93 40% 1 04.08.2027 -
Lucas Pyziak Vélez Aktiv 102 / 104 40% 2 03.08.2027 -
Rhys Walters Port Vale Aktiv 104 / 120 40% 2 03.08.2027 -
Lucan Louw US Bougouni Aktiv 71 / 89 40% 1 03.08.2027 -
Felipe Obradovich Gimnasia La Plata Aktiv 102 / 121 40% 2 02.08.2027 -
Lautaro Ávila Racing Aktiv 95 / 98 40% 2 30.07.2027 -
Duvan Giraldo Cortulua Aktiv 131 / 129 40% 4 29.07.2027 -
Olaniyi Saheed Kwara United Aktiv 105 / 85 40% 2 29.07.2027 -
Enzo Cardozo Defensa y Justicia Aktiv 106 / 116 40% 1 28.07.2027 -
Alexis Fretes Libertad Aktiv 104 / 121 40% 3 26.07.2027 -
Vasyl Bundash Metalurh Zaporizhzhia Aktiv 88 / 108 40% 2 26.07.2027 -
Alejandro Almaraz Talleres Aktiv 107 / 110 40% 1 22.07.2027 -
Renato Guimarães Veracruz Aktiv 130 / 130 40% 4 19.07.2027 -
Gustavo Albarracín Alavés Aktiv 106 / 129 40% 2 18.07.2027 -
Bautista Mamousse Chacarita Juniors Aktiv 88 / 84 40% 1 17.07.2027 -
Filip Taraba Istra 1961 Aktiv 106 / 121 40% 3 16.07.2027 -
José Pachuca Puebla Aktiv 110 / 121 40% 4 14.07.2027 -
Denys Smetana Metalurh Zaporizhzhia Aktiv 102 / 106 40% 2 13.07.2027 -
Lucas Velásquez Huachipato Aktiv 96 / 90 40% 4 12.07.2027 -
Marco Oroná Antofagasta Aktiv 100 / 96 40% 3 10.07.2027 -
Dries Vanaken Mouscron Aktiv 115 / 129 40% 2 08.07.2027 -
Juho Lähteenmäki FC Nordsjaelland Aktiv 117 / 124 40% 1 07.07.2027 -
Godwin Oham Warri Wolves Aktiv 97 / 96 40% 1 06.07.2027 -
Daniel Vernattus Metalist Aktiv 100 / 93 40% 3 05.07.2027 -
Simón Pinto Palestino Aktiv 99 / 98 40% 1 04.07.2027 -
Miguel Santos Valledupar Aktiv 80 / 86 40% 2 03.07.2027 -
Arjan Malić Sturm Graz Aktiv 122 / 121 40% 3 01.07.2027 -
Agus Medina Albacete Aktiv 133 / 119 40% 1 29.06.2027 -
Rui Costa Port Vale Aktiv 106 / 116 40% 1 29.06.2027 -
Juan Diego Perdomo Depor Aktiv 83 / 91 40% 1 23.06.2027 -
Fabián Correa Barranquilla Aktiv 91 / 88 40% 3 22.06.2027 -
Sergio Escudero Zaragoza Aktiv 113 / 128 69% 1 21.06.2027 Befürworten
Maeson King Portsmouth Aktiv 117 / 122 40% 1 21.06.2027 -
Duk Atlas Aktiv 129 / 124 40% 1 21.06.2027 -
Rubén Duarte Pumas UNAM Aktiv 123 / 143 40% 1 21.06.2027 -
Ben Garrity Port Vale Aktiv 116 / 102 40% 1 20.06.2027 -
Yann Bodiger Ceuta Aktiv 112 / 122 40% 1 18.06.2027 -
Mattia Mannini Juve Stabia Aktiv 105 / 121 40% 2 16.06.2027 -
Jack Shorrock Port Vale Aktiv 92 / 93 40% 1 16.06.2027 -
Moncef Zekri Sporting CP Aktiv 92 / 101 40% 1 15.06.2027 -
Sebastián Ramírez Deportivo Pasto Aktiv 107 / 117 40% 1 15.06.2027 -
Simeon Vasilev Arda Aktiv 112 / 94 40% 1 14.06.2027 -
Tobías Andrada River Plate Aktiv 120 / 132 40% 1 14.06.2027 -
Alpha Touré FC Metz Aktiv 118 / 113 40% 2 13.06.2027 -
Facundo Di Biasi Gimnasia La Plata Aktiv 115 / 120 40% 2 11.06.2027 -
Joel McGregor Swindon Town Aktiv 89 / 102 40% 1 11.06.2027 -
Maxim Radchenko Rostov Aktiv 83 / 81 40% 1 09.06.2027 -
Joseph Jones Kryvbas Aktiv 92 / 92 40% 1 03.06.2027 -
Achraf Bencharki Al Ahly Aktiv 131 / 120 40% 2 29.01.2027 -
Rodrigo Echeverría Leon Aktiv 140 / 122 40% 1 29.01.2027 -
Jerónimo Russo Newell's Old Boys Aktiv 102 / 104 40% 1 28.01.2027 -
Ilyes Housni AS Nancy Aktiv 97 / 110 40% 1 28.01.2027 -
Lander Astiazarán Real Sociedad Aktiv 101 / 119 40% 1 28.01.2027 -
Aubrey Modiba Mamelodi Sundowns Aktiv 129 / 114 40% 1 28.01.2027 -
Fernando Gorriarán Tigres Aktiv 134 / 139 40% 3 27.01.2027 -
Bongani Mothiba CSKA Moscow Aktiv 129 / 135 40% 1 27.01.2027 -
Tomáš Ladra Viktoria Plzen Aktiv 117 / 116 40% 1 27.01.2027 -
Daniel Awuni Aduana Stars Aktiv 103 / 98 40% 1 26.01.2027 Mehr Infos nötig
Olívio Tomé Benfica Aktiv 104 / 101 40% 1 26.01.2027 Mehr Infos nötig
Mads Abrahamsen Druzhba Aktiv 73 / 99 40% 1 25.01.2027 -
Agustín Palavecino Cruz Azul Aktiv 152 / 125 40% 1 23.01.2027 -
Gonzalo Piovi Cruz Azul Aktiv 118 / 136 40% 1 21.01.2027 -
Iuri Medeiros Ujpest Aktiv 114 / 132 40% 1 21.01.2027 -
Nicolás Tripichio San Lorenzo Aktiv 130 / 123 40% 1 21.01.2027 -
Zizo Al Ahly Aktiv 148 / 120 40% 1 20.01.2027 -
Marwan Ateya Al Ahly Aktiv 120 / 143 40% 1 19.01.2027 -
Alexandro Maidana Talleres Aktiv 120 / 111 40% 1 18.01.2027 -
Nicolás Contín LNZ Aktiv 126 / 109 40% 1 15.01.2027 -
Joaquín Correa Estudiantes Aktiv 122 / 133 40% 1 15.01.2027 -
Juninho Pumas UNAM Aktiv 121 / 118 40% 1 15.01.2027 -
Sam Nombe Milton Keynes Dons Aktiv 104 / 108 40% 2 14.01.2027 -
Christian Ebere Cruz Azul Aktiv 115 / 119 40% 2 13.01.2027 -
Marcelo Torres Gimnasia La Plata Aktiv 123 / 113 40% 1 13.01.2027 -
Marc Cardona Andorra Aktiv 107 / 121 40% 1 12.01.2027 -
Enzo Copetti Rosario Central Aktiv 125 / 123 40% 1 12.01.2027 -
Roberto de la Rosa Monterrey Aktiv 134 / 122 40% 1 11.01.2027 -
Santiago Fernández Talleres Aktiv 124 / 118 40% 1 06.01.2027 -
Ivan M'Bahia Clermont Foot Aktiv 107 / 123 40% 1 05.01.2027 -
Jan Bürger Burton Albion Aktiv 116 / 110 40% 1 04.01.2027 -
Willian Bigode Aktiv 116 / 116 66% 1 01.01.2027 Befürworten
Dylan Salvo Defensores Unidos Aktiv 101 / 105 40% 1 26.08.2026 -
Ignacio Perruzzi San Lorenzo Aktiv 126 / 132 40% 3 25.08.2026 -
Yael Padilla Tijuana Aktiv 112 / 109 40% 2 25.08.2026 -
Lautaro Vargas Unión de Santa Fe Aktiv 126 / 134 40% 1 24.08.2026 -
Alejandro Restrepo Cortulua Aktiv 110 / 110 40% 1 14.08.2026 -
Gonzalo Gómez Juventud Aktiv 100 / 114 40% 1 14.08.2026 -
Eliás Montiel Pachuca Aktiv 137 / 132 40% 1 13.08.2026 -
Thiago Acosta River Plate Aktiv 100 / 113 40% 1 08.08.2026 -
Gonzalo Bordón Independiente Aktiv 105 / 113 40% 1 06.08.2026 -